sensor_id;sensor_type;location;lat;lon;timestamp;pressure;altitude;pressure_sealevel;temperature;humidity
6198;BME280;3132;42.622;23.328;2023-04-06T00:00:48;92451.19;;;-0.64;88.40
6198;BME280;3132;42.622;23.328;2023-04-06T00:03:14;92456.94;;;-0.50;89.37
6198;BME280;3132;42.622;23.328;2023-04-06T00:05:39;92464.22;;;-0.47;89.52
6198;BME280;3132;42.622;23.328;2023-04-06T00:08:05;92459.00;;;-0.41;89.13
6198;BME280;3132;42.622;23.328;2023-04-06T00:10:31;92463.56;;;-0.43;89.25
6198;BME280;3132;42.622;23.328;2023-04-06T00:12:58;92458.66;;;-0.44;88.83
6198;BME280;3132;42.622;23.328;2023-04-06T00:15:23;92449.97;;;-0.61;90.36
6198;BME280;3132;42.622;23.328;2023-04-06T00:17:48;92445.63;;;-0.61;90.19
6198;BME280;3132;42.622;23.328;2023-04-06T00:20:15;92450.84;;;-0.67;90.64
6198;BME280;3132;42.622;23.328;2023-04-06T00:22:41;92459.53;;;-0.86;91.74
6198;BME280;3132;42.622;23.328;2023-04-06T00:25:07;92423.78;;;-0.99;92.31
6198;BME280;3132;42.622;23.328;2023-04-06T00:27:32;92443.00;;;-0.72;92.00
6198;BME280;3132;42.622;23.328;2023-04-06T00:29:58;92428.06;;;-0.75;91.53
6198;BME280;3132;42.622;23.328;2023-04-06T00:32:23;92437.75;;;-0.77;93.05
6198;BME280;3132;42.622;23.328;2023-04-06T00:34:49;92428.31;;;-0.65;92.56
6198;BME280;3132;42.622;23.328;2023-04-06T00:37:14;92425.94;;;-0.78;93.47
6198;BME280;3132;42.622;23.328;2023-04-06T00:39:39;92429.75;;;-0.69;92.99
6198;BME280;3132;42.622;23.328;2023-04-06T00:42:11;92425.06;;;-0.72;92.87
6198;BME280;3132;42.622;23.328;2023-04-06T00:44:43;92433.28;;;-1.00;93.65
6198;BME280;3132;42.622;23.328;2023-04-06T00:47:09;92424.66;;;-0.87;94.25
6198;BME280;3132;42.622;23.328;2023-04-06T00:49:34;92416.13;;;-0.81;94.40
6198;BME280;3132;42.622;23.328;2023-04-06T00:52:00;92430.06;;;-0.77;93.47
6198;BME280;3132;42.622;23.328;2023-04-06T00:54:26;92411.00;;;-0.81;92.85
6198;BME280;3132;42.622;23.328;2023-04-06T00:56:52;92421.69;;;-0.84;93.08
6198;BME280;3132;42.622;23.328;2023-04-06T00:59:17;92414.56;;;-1.18;93.35
6198;BME280;3132;42.622;23.328;2023-04-06T01:01:43;92433.56;;;-1.08;94.26
6198;BME280;3132;42.622;23.328;2023-04-06T01:04:08;92436.38;;;-0.98;92.11
6198;BME280;3132;42.622;23.328;2023-04-06T01:06:34;92427.06;;;-0.74;91.45
6198;BME280;3132;42.622;23.328;2023-04-06T01:08:59;92433.78;;;-0.73;91.30
6198;BME280;3132;42.622;23.328;2023-04-06T01:11:25;92416.81;;;-0.74;91.41
6198;BME280;3132;42.622;23.328;2023-04-06T01:13:51;92416.31;;;-0.65;89.69
6198;BME280;3132;42.622;23.328;2023-04-06T01:16:17;92413.34;;;-0.80;90.50
6198;BME280;3132;42.622;23.328;2023-04-06T01:18:43;92411.00;;;-0.99;89.09
6198;BME280;3132;42.622;23.328;2023-04-06T01:21:09;92404.16;;;-0.87;88.69
6198;BME280;3132;42.622;23.328;2023-04-06T01:23:42;92399.41;;;-1.02;90.07
6198;BME280;3132;42.622;23.328;2023-04-06T01:26:07;92410.50;;;-1.08;91.22
6198;BME280;3132;42.622;23.328;2023-04-06T01:28:33;92388.97;;;-1.18;91.17
6198;BME280;3132;42.622;23.328;2023-04-06T01:30:58;92400.66;;;-0.93;90.54
6198;BME280;3132;42.622;23.328;2023-04-06T01:33:24;92392.41;;;-0.77;88.81
6198;BME280;3132;42.622;23.328;2023-04-06T01:35:50;92411.97;;;-0.82;90.18
6198;BME280;3132;42.622;23.328;2023-04-06T01:38:15;92393.47;;;-1.02;87.74
6198;BME280;3132;42.622;23.328;2023-04-06T01:40:41;92408.09;;;-1.03;88.99
6198;BME280;3132;42.622;23.328;2023-04-06T01:43:06;92407.06;;;-0.84;88.30
6198;BME280;3132;42.622;23.328;2023-04-06T01:45:32;92367.88;;;-1.02;88.08
6198;BME280;3132;42.622;23.328;2023-04-06T01:47:57;92393.56;;;-0.91;87.91
6198;BME280;3132;42.622;23.328;2023-04-06T01:50:22;92386.84;;;-0.92;88.54
6198;BME280;3132;42.622;23.328;2023-04-06T01:52:48;92362.00;;;-1.03;87.27
6198;BME280;3132;42.622;23.328;2023-04-06T01:55:13;92395.34;;;-0.91;87.55
6198;BME280;3132;42.622;23.328;2023-04-06T01:57:39;92389.41;;;-0.92;87.22
6198;BME280;3132;42.622;23.328;2023-04-06T02:00:05;92376.00;;;-1.05;88.50
6198;BME280;3132;42.622;23.328;2023-04-06T02:02:30;92371.72;;;-1.11;88.44
6198;BME280;3132;42.622;23.328;2023-04-06T02:04:56;92394.53;;;-0.92;89.35
6198;BME280;3132;42.622;23.328;2023-04-06T02:07:21;92353.88;;;-1.18;87.44
6198;BME280;3132;42.622;23.328;2023-04-06T02:09:46;92384.66;;;-0.88;87.07
6198;BME280;3132;42.622;23.328;2023-04-06T02:12:12;92356.03;;;-0.85;87.74
6198;BME280;3132;42.622;23.328;2023-04-06T02:14:37;92360.75;;;-1.00;86.73
6198;BME280;3132;42.622;23.328;2023-04-06T02:17:03;92391.97;;;-0.74;87.28
6198;BME280;3132;42.622;23.328;2023-04-06T02:19:28;92372.28;;;-0.73;86.96
6198;BME280;3132;42.622;23.328;2023-04-06T02:21:54;92383.59;;;-0.51;87.60
6198;BME280;3132;42.622;23.328;2023-04-06T02:24:19;92384.50;;;-0.46;87.40
6198;BME280;3132;42.622;23.328;2023-04-06T02:26:45;92385.03;;;-0.55;86.41
6198;BME280;3132;42.622;23.328;2023-04-06T02:29:10;92342.78;;;-0.82;86.22
6198;BME280;3132;42.622;23.328;2023-04-06T02:31:36;92361.59;;;-0.70;87.06
6198;BME280;3132;42.622;23.328;2023-04-06T02:34:01;92375.72;;;-0.68;86.55
6198;BME280;3132;42.622;23.328;2023-04-06T02:36:26;92368.88;;;-0.56;87.96
6198;BME280;3132;42.622;23.328;2023-04-06T02:38:52;92391.03;;;-0.61;86.07
6198;BME280;3132;42.622;23.328;2023-04-06T02:41:17;92385.16;;;-0.50;85.99
6198;BME280;3132;42.622;23.328;2023-04-06T02:43:43;92389.00;;;-0.41;86.17
6198;BME280;3132;42.622;23.328;2023-04-06T02:46:08;92374.88;;;-0.62;85.85
6198;BME280;3132;42.622;23.328;2023-04-06T02:48:34;92376.34;;;-0.54;86.68
6198;BME280;3132;42.622;23.328;2023-04-06T02:51:01;92389.72;;;-0.52;85.60
6198;BME280;3132;42.622;23.328;2023-04-06T02:53:26;92387.06;;;-0.46;86.94
6198;BME280;3132;42.622;23.328;2023-04-06T02:55:53;92363.13;;;-0.40;85.45
6198;BME280;3132;42.622;23.328;2023-04-06T02:58:18;92378.50;;;-0.40;85.23
6198;BME280;3132;42.622;23.328;2023-04-06T03:00:43;92377.19;;;-0.42;84.90
6198;BME280;3132;42.622;23.328;2023-04-06T03:03:09;92369.34;;;-0.47;85.11
6198;BME280;3132;42.622;23.328;2023-04-06T03:05:35;92375.72;;;-0.38;89.37
6198;BME280;3132;42.622;23.328;2023-04-06T03:08:00;92380.06;;;-0.39;85.84
6198;BME280;3132;42.622;23.328;2023-04-06T03:10:25;92374.34;;;-0.52;85.83
6198;BME280;3132;42.622;23.328;2023-04-06T03:12:51;92378.88;;;-0.36;85.16
6198;BME280;3132;42.622;23.328;2023-04-06T03:15:16;92361.00;;;-0.43;86.10
6198;BME280;3132;42.622;23.328;2023-04-06T03:17:42;92365.91;;;-0.41;84.81
6198;BME280;3132;42.622;23.328;2023-04-06T03:20:07;92362.69;;;-0.66;85.84
6198;BME280;3132;42.622;23.328;2023-04-06T03:22:33;92367.00;;;-0.49;85.31
6198;BME280;3132;42.622;23.328;2023-04-06T03:24:58;92368.53;;;-0.30;86.08
6198;BME280;3132;42.622;23.328;2023-04-06T03:27:24;92364.13;;;-0.41;84.77
6198;BME280;3132;42.622;23.328;2023-04-06T03:29:49;92376.03;;;-0.46;85.32
6198;BME280;3132;42.622;23.328;2023-04-06T03:32:14;92375.56;;;-0.25;85.69
6198;BME280;3132;42.622;23.328;2023-04-06T03:34:40;92378.78;;;-0.18;87.79
6198;BME280;3132;42.622;23.328;2023-04-06T03:37:05;92375.91;;;-0.10;85.52
6198;BME280;3132;42.622;23.328;2023-04-06T03:39:31;92375.47;;;-0.07;86.87
6198;BME280;3132;42.622;23.328;2023-04-06T03:41:56;92358.97;;;-0.52;84.63
6198;BME280;3132;42.622;23.328;2023-04-06T03:44:22;92362.34;;;-0.40;84.40
6198;BME280;3132;42.622;23.328;2023-04-06T03:46:47;92351.94;;;-0.57;84.36
6198;BME280;3132;42.622;23.328;2023-04-06T03:49:13;92370.59;;;-0.38;87.62
6198;BME280;3132;42.622;23.328;2023-04-06T03:51:38;92381.72;;;-0.44;84.46
6198;BME280;3132;42.622;23.328;2023-04-06T03:54:04;92355.91;;;-0.61;84.28
6198;BME280;3132;42.622;23.328;2023-04-06T03:56:29;92376.59;;;-0.44;84.11
6198;BME280;3132;42.622;23.328;2023-04-06T03:58:55;92375.81;;;-0.45;84.33
6198;BME280;3132;42.622;23.328;2023-04-06T04:01:20;92368.53;;;-0.30;83.54
6198;BME280;3132;42.622;23.328;2023-04-06T04:03:46;92340.66;;;-0.56;83.44
6198;BME280;3132;42.622;23.328;2023-04-06T04:06:11;92345.41;;;-0.41;86.73
6198;BME280;3132;42.622;23.328;2023-04-06T04:08:36;92370.44;;;-0.25;83.07
6198;BME280;3132;42.622;23.328;2023-04-06T04:11:02;92377.91;;;-0.12;83.40
6198;BME280;3132;42.622;23.328;2023-04-06T04:13:27;92379.72;;;-0.13;82.41
6198;BME280;3132;42.622;23.328;2023-04-06T04:15:53;92364.31;;;-0.01;82.62
6198;BME280;3132;42.622;23.328;2023-04-06T04:18:18;92346.69;;;-0.21;83.65
6198;BME280;3132;42.622;23.328;2023-04-06T04:20:44;92338.28;;;-0.39;83.88
6198;BME280;3132;42.622;23.328;2023-04-06T04:23:10;92380.28;;;0.01;81.93
6198;BME280;3132;42.622;23.328;2023-04-06T04:25:35;92368.94;;;0.20;82.19
6198;BME280;3132;42.622;23.328;2023-04-06T04:28:01;92382.22;;;0.17;81.18
6198;BME280;3132;42.622;23.328;2023-04-06T04:30:27;92358.00;;;0.02;82.25
6198;BME280;3132;42.622;23.328;2023-04-06T04:32:52;92382.00;;;0.30;81.93
6198;BME280;3132;42.622;23.328;2023-04-06T04:35:18;92378.84;;;0.28;81.32
6198;BME280;3132;42.622;23.328;2023-04-06T04:37:43;92370.16;;;0.18;81.44
6198;BME280;3132;42.622;23.328;2023-04-06T04:40:09;92387.56;;;0.50;81.18
6198;BME280;3132;42.622;23.328;2023-04-06T04:42:35;92389.25;;;0.56;80.31
6198;BME280;3132;42.622;23.328;2023-04-06T04:45:00;92387.91;;;0.54;79.81
6198;BME280;3132;42.622;23.328;2023-04-06T04:47:26;92397.06;;;0.61;80.21
6198;BME280;3132;42.622;23.328;2023-04-06T04:49:51;92358.78;;;0.60;81.97
6198;BME280;3132;42.622;23.328;2023-04-06T04:52:16;92377.66;;;0.65;79.41
6198;BME280;3132;42.622;23.328;2023-04-06T04:54:42;92379.53;;;0.81;78.35
6198;BME280;3132;42.622;23.328;2023-04-06T04:57:07;92374.28;;;0.53;79.12
6198;BME280;3132;42.622;23.328;2023-04-06T04:59:34;92368.06;;;0.49;78.94
6198;BME280;3132;42.622;23.328;2023-04-06T05:02:00;92386.69;;;0.68;78.82
6198;BME280;3132;42.622;23.328;2023-04-06T05:04:26;92372.28;;;0.55;78.42
6198;BME280;3132;42.622;23.328;2023-04-06T05:07:02;92389.25;;;0.56;79.02
6198;BME280;3132;42.622;23.328;2023-04-06T05:09:29;92370.28;;;0.57;78.65
6198;BME280;3132;42.622;23.328;2023-04-06T05:11:55;92388.03;;;0.70;77.71
6198;BME280;3132;42.622;23.328;2023-04-06T05:14:21;92380.72;;;0.90;77.11
6198;BME280;3132;42.622;23.328;2023-04-06T05:16:46;92381.19;;;0.87;76.30
6198;BME280;3132;42.622;23.328;2023-04-06T05:19:12;92374.84;;;0.90;77.06
6198;BME280;3132;42.622;23.328;2023-04-06T05:21:37;92398.81;;;1.07;76.28
6198;BME280;3132;42.622;23.328;2023-04-06T05:24:03;92333.72;;;0.78;76.25
6198;BME280;3132;42.622;23.328;2023-04-06T05:26:28;92356.31;;;0.65;76.42
6198;BME280;3132;42.622;23.328;2023-04-06T05:28:54;92405.13;;;0.76;77.75
6198;BME280;3132;42.622;23.328;2023-04-06T05:31:20;92397.31;;;0.71;78.41
6198;BME280;3132;42.622;23.328;2023-04-06T05:33:45;92405.78;;;0.83;79.26
6198;BME280;3132;42.622;23.328;2023-04-06T05:36:11;92405.09;;;0.99;77.22
6198;BME280;3132;42.622;23.328;2023-04-06T05:38:37;92407.97;;;1.14;77.15
6198;BME280;3132;42.622;23.328;2023-04-06T05:41:02;92406.03;;;1.33;77.12
6198;BME280;3132;42.622;23.328;2023-04-06T05:43:28;92403.28;;;1.23;76.72
6198;BME280;3132;42.622;23.328;2023-04-06T05:45:53;92400.81;;;1.16;76.55
6198;BME280;3132;42.622;23.328;2023-04-06T05:48:18;92406.53;;;1.46;76.86
6198;BME280;3132;42.622;23.328;2023-04-06T05:50:48;92399.06;;;1.45;75.64
6198;BME280;3132;42.622;23.328;2023-04-06T05:53:14;92395.41;;;1.69;75.12
6198;BME280;3132;42.622;23.328;2023-04-06T05:55:40;92403.00;;;1.76;75.01
6198;BME280;3132;42.622;23.328;2023-04-06T05:58:05;92384.22;;;1.92;74.45
6198;BME280;3132;42.622;23.328;2023-04-06T06:00:31;92391.47;;;1.95;73.25
6198;BME280;3132;42.622;23.328;2023-04-06T06:02:56;92390.56;;;2.01;74.26
6198;BME280;3132;42.622;23.328;2023-04-06T06:05:21;92382.66;;;1.91;75.01
6198;BME280;3132;42.622;23.328;2023-04-06T06:07:47;92363.00;;;1.85;74.55
6198;BME280;3132;42.622;23.328;2023-04-06T06:10:12;92368.00;;;2.08;74.53
6198;BME280;3132;42.622;23.328;2023-04-06T06:12:38;92387.06;;;2.23;73.77
6198;BME280;3132;42.622;23.328;2023-04-06T06:15:04;92390.34;;;2.52;73.92
6198;BME280;3132;42.622;23.328;2023-04-06T06:17:30;92380.66;;;2.59;72.31
6198;BME280;3132;42.622;23.328;2023-04-06T06:19:55;92397.97;;;2.80;71.36
6198;BME280;3132;42.622;23.328;2023-04-06T06:22:21;92392.34;;;2.66;71.70
6198;BME280;3132;42.622;23.328;2023-04-06T06:24:46;92394.06;;;2.94;72.23
6198;BME280;3132;42.622;23.328;2023-04-06T06:27:12;92403.47;;;3.05;71.66
6198;BME280;3132;42.622;23.328;2023-04-06T06:29:37;92400.75;;;2.95;70.48
6198;BME280;3132;42.622;23.328;2023-04-06T06:32:02;92394.66;;;3.01;71.00
6198;BME280;3132;42.622;23.328;2023-04-06T06:34:28;92390.81;;;2.32;70.78
6198;BME280;3132;42.622;23.328;2023-04-06T06:36:53;92391.19;;;2.57;71.66
6198;BME280;3132;42.622;23.328;2023-04-06T06:39:20;92382.06;;;2.50;71.16
6198;BME280;3132;42.622;23.328;2023-04-06T06:41:46;92392.84;;;2.47;71.23
6198;BME280;3132;42.622;23.328;2023-04-06T06:44:11;92389.06;;;2.71;70.64
6198;BME280;3132;42.622;23.328;2023-04-06T06:46:37;92385.44;;;2.88;69.55
6198;BME280;3132;42.622;23.328;2023-04-06T06:49:02;92390.00;;;2.65;70.54
6198;BME280;3132;42.622;23.328;2023-04-06T06:51:28;92370.75;;;2.34;70.19
6198;BME280;3132;42.622;23.328;2023-04-06T06:53:54;92395.25;;;2.70;70.24
6198;BME280;3132;42.622;23.328;2023-04-06T06:56:19;92410.91;;;2.85;69.78
6198;BME280;3132;42.622;23.328;2023-04-06T06:58:45;92388.91;;;3.15;69.94
6198;BME280;3132;42.622;23.328;2023-04-06T07:01:10;92394.06;;;2.77;69.21
6198;BME280;3132;42.622;23.328;2023-04-06T07:03:36;92377.19;;;2.70;70.50
6198;BME280;3132;42.622;23.328;2023-04-06T07:06:01;92387.94;;;2.83;70.36
6198;BME280;3132;42.622;23.328;2023-04-06T07:08:27;92375.50;;;2.59;70.71
6198;BME280;3132;42.622;23.328;2023-04-06T07:10:53;92382.69;;;2.73;71.85
6198;BME280;3132;42.622;23.328;2023-04-06T07:13:19;92339.91;;;2.56;71.23
6198;BME280;3132;42.622;23.328;2023-04-06T07:15:51;92371.72;;;2.83;72.04
6198;BME280;3132;42.622;23.328;2023-04-06T07:18:20;92374.88;;;2.68;72.03
6198;BME280;3132;42.622;23.328;2023-04-06T07:20:46;92373.94;;;2.58;70.88
6198;BME280;3132;42.622;23.328;2023-04-06T07:23:11;92382.78;;;2.83;71.54
6198;BME280;3132;42.622;23.328;2023-04-06T07:25:37;92380.47;;;3.20;70.37
6198;BME280;3132;42.622;23.328;2023-04-06T07:28:03;92396.59;;;3.10;69.90
6198;BME280;3132;42.622;23.328;2023-04-06T07:30:29;92393.53;;;3.13;70.71
6198;BME280;3132;42.622;23.328;2023-04-06T07:32:54;92390.53;;;3.21;70.38
6198;BME280;3132;42.622;23.328;2023-04-06T07:35:24;92377.06;;;2.98;70.23
6198;BME280;3132;42.622;23.328;2023-04-06T07:37:51;92385.22;;;2.90;69.48
6198;BME280;3132;42.622;23.328;2023-04-06T07:40:17;92370.22;;;2.49;70.41
6198;BME280;3132;42.622;23.328;2023-04-06T07:42:43;92365.19;;;2.75;71.15
6198;BME280;3132;42.622;23.328;2023-04-06T07:45:09;92386.44;;;3.04;70.16
6198;BME280;3132;42.622;23.328;2023-04-06T07:47:34;92381.41;;;3.14;70.72
6198;BME280;3132;42.622;23.328;2023-04-06T07:50:00;92380.38;;;3.37;70.42
6198;BME280;3132;42.622;23.328;2023-04-06T07:52:25;92378.13;;;3.40;69.83
6198;BME280;3132;42.622;23.328;2023-04-06T07:54:51;92372.22;;;3.45;68.14
6198;BME280;3132;42.622;23.328;2023-04-06T07:57:17;92376.09;;;3.90;66.57
6198;BME280;3132;42.622;23.328;2023-04-06T07:59:43;92381.31;;;3.95;65.77
6198;BME280;3132;42.622;23.328;2023-04-06T08:02:09;92357.22;;;3.63;66.16
6198;BME280;3132;42.622;23.328;2023-04-06T08:04:35;92375.53;;;3.62;67.17
6198;BME280;3132;42.622;23.328;2023-04-06T08:07:00;92379.44;;;3.91;66.84
6198;BME280;3132;42.622;23.328;2023-04-06T08:09:26;92358.88;;;3.74;65.29
6198;BME280;3132;42.622;23.328;2023-04-06T08:11:52;92381.50;;;4.15;64.04
6198;BME280;3132;42.622;23.328;2023-04-06T08:14:17;92354.31;;;4.13;64.40
6198;BME280;3132;42.622;23.328;2023-04-06T08:16:43;92380.06;;;3.76;65.50
6198;BME280;3132;42.622;23.328;2023-04-06T08:19:08;92379.34;;;4.07;63.99
6198;BME280;3132;42.622;23.328;2023-04-06T08:21:35;92375.81;;;3.65;64.64
6198;BME280;3132;42.622;23.328;2023-04-06T08:24:01;92387.63;;;3.61;66.01
6198;BME280;3132;42.622;23.328;2023-04-06T08:26:26;92350.38;;;3.52;65.16
6198;BME280;3132;42.622;23.328;2023-04-06T08:28:52;92382.13;;;3.53;65.99
6198;BME280;3132;42.622;23.328;2023-04-06T08:31:17;92382.66;;;3.76;66.04
6198;BME280;3132;42.622;23.328;2023-04-06T08:33:43;92385.75;;;3.52;65.11
6198;BME280;3132;42.622;23.328;2023-04-06T08:36:13;92376.78;;;3.59;66.29
6198;BME280;3132;42.622;23.328;2023-04-06T08:38:40;92385.06;;;3.88;65.02
6198;BME280;3132;42.622;23.328;2023-04-06T08:41:10;92380.66;;;4.10;65.42
6198;BME280;3132;42.622;23.328;2023-04-06T08:43:57;92386.84;;;3.82;66.43
6198;BME280;3132;42.622;23.328;2023-04-06T08:46:23;92374.00;;;4.14;66.14
6198;BME280;3132;42.622;23.328;2023-04-06T08:48:55;92385.88;;;3.88;66.37
6198;BME280;3132;42.622;23.328;2023-04-06T08:51:25;92380.44;;;4.16;66.77
6198;BME280;3132;42.622;23.328;2023-04-06T08:53:53;92374.13;;;4.02;66.11
6198;BME280;3132;42.622;23.328;2023-04-06T08:56:22;92382.25;;;4.16;67.07
6198;BME280;3132;42.622;23.328;2023-04-06T08:58:48;92372.91;;;4.41;68.03
6198;BME280;3132;42.622;23.328;2023-04-06T09:01:17;92381.81;;;4.55;65.20
6198;BME280;3132;42.622;23.328;2023-04-06T09:03:43;92322.84;;;3.58;64.36
6198;BME280;3132;42.622;23.328;2023-04-06T09:06:10;92372.28;;;3.98;63.62
6198;BME280;3132;42.622;23.328;2023-04-06T09:08:39;92382.00;;;4.17;63.09
6198;BME280;3132;42.622;23.328;2023-04-06T09:11:05;92388.31;;;4.26;65.26
6198;BME280;3132;42.622;23.328;2023-04-06T09:13:31;92385.22;;;4.29;66.51
6198;BME280;3132;42.622;23.328;2023-04-06T09:16:04;92372.59;;;4.06;64.63
6198;BME280;3132;42.622;23.328;2023-04-06T09:18:32;92382.16;;;4.32;66.30
6198;BME280;3132;42.622;23.328;2023-04-06T09:20:59;92374.00;;;4.50;63.05
6198;BME280;3132;42.622;23.328;2023-04-06T09:23:25;92380.63;;;4.36;65.00
6198;BME280;3132;42.622;23.328;2023-04-06T09:25:51;92356.28;;;3.74;66.38
6198;BME280;3132;42.622;23.328;2023-04-06T09:28:16;92382.91;;;4.01;63.57
6198;BME280;3132;42.622;23.328;2023-04-06T09:30:48;92380.09;;;4.34;63.56
6198;BME280;3132;42.622;23.328;2023-04-06T09:33:22;92387.13;;;4.39;64.39
6198;BME280;3132;42.622;23.328;2023-04-06T09:35:50;92393.06;;;4.39;64.65
6198;BME280;3132;42.622;23.328;2023-04-06T09:38:16;92381.13;;;4.33;64.48
6198;BME280;3132;42.622;23.328;2023-04-06T09:40:49;92376.19;;;4.63;64.60
6198;BME280;3132;42.622;23.328;2023-04-06T09:43:26;92388.03;;;4.54;62.44
6198;BME280;3132;42.622;23.328;2023-04-06T09:45:52;92381.94;;;4.39;63.40
6198;BME280;3132;42.622;23.328;2023-04-06T09:48:20;92374.16;;;4.34;64.72
6198;BME280;3132;42.622;23.328;2023-04-06T09:50:52;92385.22;;;4.29;64.10
6198;BME280;3132;42.622;23.328;2023-04-06T09:53:21;92388.16;;;4.11;64.42
6198;BME280;3132;42.622;23.328;2023-04-06T09:55:51;92387.03;;;4.02;64.00
6198;BME280;3132;42.622;23.328;2023-04-06T09:58:22;92385.50;;;4.06;65.07
6198;BME280;3132;42.622;23.328;2023-04-06T10:06:11;92388.47;;;4.46;64.13
6198;BME280;3132;42.622;23.328;2023-04-06T10:08:38;92381.88;;;4.02;63.88
6198;BME280;3132;42.622;23.328;2023-04-06T10:11:08;92387.03;;;4.29;65.16
6198;BME280;3132;42.622;23.328;2023-04-06T10:13:35;92378.88;;;4.42;65.71
6198;BME280;3132;42.622;23.328;2023-04-06T10:16:01;92370.25;;;4.31;63.85
6198;BME280;3132;42.622;23.328;2023-04-06T10:18:27;92385.75;;;4.31;63.41
6198;BME280;3132;42.622;23.328;2023-04-06T10:23:41;92374.41;;;4.37;63.85
6198;BME280;3132;42.622;23.328;2023-04-06T10:26:19;92365.31;;;4.61;62.88
6198;BME280;3132;42.622;23.328;2023-04-06T10:28:46;92380.41;;;4.79;61.75
6198;BME280;3132;42.622;23.328;2023-04-06T10:31:12;92370.16;;;4.21;62.97
6198;BME280;3132;42.622;23.328;2023-04-06T10:33:37;92364.22;;;4.52;62.95
6198;BME280;3132;42.622;23.328;2023-04-06T10:36:14;92376.81;;;4.80;63.21
6198;BME280;3132;42.622;23.328;2023-04-06T10:38:41;92382.59;;;4.92;62.75
6198;BME280;3132;42.622;23.328;2023-04-06T10:41:08;92372.94;;;4.83;61.72
6198;BME280;3132;42.622;23.328;2023-04-06T10:43:36;92369.91;;;4.91;62.02
6198;BME280;3132;42.622;23.328;2023-04-06T10:46:02;92374.41;;;4.69;61.59
6198;BME280;3132;42.622;23.328;2023-04-06T10:48:39;92379.31;;;4.70;61.88
6198;BME280;3132;42.622;23.328;2023-04-06T10:51:12;92369.63;;;4.51;61.69
6198;BME280;3132;42.622;23.328;2023-04-06T10:53:43;92374.56;;;4.52;62.20
6198;BME280;3132;42.622;23.328;2023-04-06T10:56:11;92378.44;;;4.96;62.75
6198;BME280;3132;42.622;23.328;2023-04-06T10:58:52;92380.75;;;5.35;61.62
6198;BME280;3132;42.622;23.328;2023-04-06T11:01:20;92377.94;;;4.94;62.13
6198;BME280;3132;42.622;23.328;2023-04-06T11:03:53;92375.16;;;4.64;62.76
6198;BME280;3132;42.622;23.328;2023-04-06T11:06:23;92363.53;;;4.67;63.78
6198;BME280;3132;42.622;23.328;2023-04-06T11:08:50;92372.31;;;5.03;62.97
6198;BME280;3132;42.622;23.328;2023-04-06T11:11:18;92368.56;;;4.83;64.23
6198;BME280;3132;42.622;23.328;2023-04-06T11:13:56;92370.41;;;4.51;62.87
6198;BME280;3132;42.622;23.328;2023-04-06T11:16:26;92350.72;;;4.45;63.06
6198;BME280;3132;42.622;23.328;2023-04-06T11:18:58;92363.19;;;4.90;62.24
6198;BME280;3132;42.622;23.328;2023-04-06T11:21:46;92357.69;;;5.33;62.14
6198;BME280;3132;42.622;23.328;2023-04-06T11:24:15;92355.66;;;5.35;61.21
6198;BME280;3132;42.622;23.328;2023-04-06T11:26:45;92356.97;;;5.43;60.44
6198;BME280;3132;42.622;23.328;2023-04-06T11:29:16;92356.47;;;5.46;61.03
6198;BME280;3132;42.622;23.328;2023-04-06T11:31:45;92350.13;;;5.22;60.68
6198;BME280;3132;42.622;23.328;2023-04-06T11:34:18;92351.03;;;5.47;60.01
6198;BME280;3132;42.622;23.328;2023-04-06T11:36:46;92349.31;;;5.78;60.58
6198;BME280;3132;42.622;23.328;2023-04-06T11:39:20;92346.41;;;5.59;58.70
6198;BME280;3132;42.622;23.328;2023-04-06T11:41:54;92351.41;;;5.14;61.79
6198;BME280;3132;42.622;23.328;2023-04-06T11:44:29;92336.53;;;5.46;60.74
6198;BME280;3132;42.622;23.328;2023-04-06T11:46:56;92336.22;;;5.33;60.49
6198;BME280;3132;42.622;23.328;2023-04-06T11:49:26;92322.06;;;4.93;61.01
6198;BME280;3132;42.622;23.328;2023-04-06T11:51:52;92353.09;;;4.93;61.96
6198;BME280;3132;42.622;23.328;2023-04-06T11:54:17;92342.31;;;5.07;62.35
6198;BME280;3132;42.622;23.328;2023-04-06T11:56:46;92345.63;;;5.64;59.90
6198;BME280;3132;42.622;23.328;2023-04-06T11:59:12;92327.38;;;5.24;59.45
6198;BME280;3132;42.622;23.328;2023-04-06T12:01:45;92336.13;;;5.13;60.12
6198;BME280;3132;42.622;23.328;2023-04-06T12:04:10;92335.13;;;5.14;60.00
6198;BME280;3132;42.622;23.328;2023-04-06T12:06:36;92333.38;;;5.34;59.89
6198;BME280;3132;42.622;23.328;2023-04-06T12:09:01;92338.53;;;5.29;60.71
6198;BME280;3132;42.622;23.328;2023-04-06T12:11:27;92333.03;;;5.16;59.55
6198;BME280;3132;42.622;23.328;2023-04-06T12:13:53;92345.16;;;5.05;61.13
6198;BME280;3132;42.622;23.328;2023-04-06T12:16:18;92346.91;;;4.94;61.53
6198;BME280;3132;42.622;23.328;2023-04-06T12:18:44;92322.41;;;4.60;62.62
6198;BME280;3132;42.622;23.328;2023-04-06T12:21:10;92333.50;;;5.08;62.22
6198;BME280;3132;42.622;23.328;2023-04-06T12:23:35;92324.50;;;5.15;60.46
6198;BME280;3132;42.622;23.328;2023-04-06T12:26:01;92343.72;;;4.82;61.00
6198;BME280;3132;42.622;23.328;2023-04-06T12:28:27;92341.66;;;4.84;61.84
6198;BME280;3132;42.622;23.328;2023-04-06T12:30:53;92334.31;;;5.13;61.13
6198;BME280;3132;42.622;23.328;2023-04-06T12:33:19;92338.78;;;5.23;60.87
6198;BME280;3132;42.622;23.328;2023-04-06T12:35:45;92322.31;;;4.92;63.07
6198;BME280;3132;42.622;23.328;2023-04-06T12:38:11;92304.47;;;4.49;62.09
6198;BME280;3132;42.622;23.328;2023-04-06T12:40:38;92336.75;;;4.83;63.51
6198;BME280;3132;42.622;23.328;2023-04-06T12:43:03;92311.31;;;4.28;63.91
6198;BME280;3132;42.622;23.328;2023-04-06T12:45:30;92327.63;;;4.70;63.11
6198;BME280;3132;42.622;23.328;2023-04-06T12:47:56;92324.69;;;4.57;63.18
6198;BME280;3132;42.622;23.328;2023-04-06T12:50:21;92319.00;;;4.18;61.82
6198;BME280;3132;42.622;23.328;2023-04-06T12:52:47;92319.69;;;4.45;65.51
6198;BME280;3132;42.622;23.328;2023-04-06T12:55:12;92309.47;;;4.24;61.85
6198;BME280;3132;42.622;23.328;2023-04-06T12:57:38;92332.06;;;4.38;62.70
6198;BME280;3132;42.622;23.328;2023-04-06T13:00:04;92325.22;;;4.22;63.05
6198;BME280;3132;42.622;23.328;2023-04-06T13:02:30;92326.53;;;3.93;62.22
6198;BME280;3132;42.622;23.328;2023-04-06T13:04:56;92314.84;;;4.17;62.53
6198;BME280;3132;42.622;23.328;2023-04-06T13:07:21;92315.19;;;4.26;62.16
6198;BME280;3132;42.622;23.328;2023-04-06T13:09:47;92296.66;;;4.02;63.08
6198;BME280;3132;42.622;23.328;2023-04-06T13:12:15;92320.09;;;4.27;62.58
6198;BME280;3132;42.622;23.328;2023-04-06T13:14:40;92315.53;;;4.39;61.74
6198;BME280;3132;42.622;23.328;2023-04-06T13:17:06;92289.25;;;4.16;61.52
6198;BME280;3132;42.622;23.328;2023-04-06T13:19:33;92309.66;;;4.49;61.04
6198;BME280;3132;42.622;23.328;2023-04-06T13:21:59;92292.97;;;4.25;60.55